Time;durP1;ratioP1;P1;durP2;ratioP2;P2;SDS_P1;SDS_P2;PMS_P1;PMS_P2;Temp;Humidity;BMP_temperature;BMP_pressure;BME280_temperature;BME280_humidity;BME280_pressure;Samples;Min_cycle;Max_cycle;Signal;HPM_P1;HPM_P2
2023/07/05 00:01:38;;;;;;;8.55;4.30;;;18.20;99.90;;;;;;4986869;28;20272;-65
2023/07/05 00:04:04;;;;;;;7.97;4.25;;;18.10;99.90;;;;;;4992086;28;20105;-65
2023/07/05 00:06:29;;;;;;;8.60;4.32;;;18.10;99.90;;;;;;4991159;28;20092;-65
2023/07/05 00:08:56;;;;;;;5.95;3.88;;;18.10;99.90;;;;;;4995044;28;20033;-65
2023/07/05 00:11:22;;;;;;;7.88;4.00;;;18.00;99.90;;;;;;4989699;28;20526;-65
2023/07/05 00:13:48;;;;;;;5.30;3.85;;;18.00;99.90;;;;;;4988315;28;20042;-65
2023/07/05 00:16:13;;;;;;;10.32;3.90;;;18.00;99.90;;;;;;4991443;28;20832;-65
2023/07/05 00:18:39;;;;;;;9.07;3.85;;;17.90;99.90;;;;;;4992490;28;20041;-65
2023/07/05 00:21:07;;;;;;;11.30;4.40;;;17.90;99.90;;;;;;4992891;28;20050;-65
2023/07/05 00:23:35;;;;;;;8.48;4.30;;;17.80;99.90;;;;;;4989740;28;20057;-65
2023/07/05 00:26:02;;;;;;;4.72;3.92;;;17.80;99.90;;;;;;4994229;28;20109;-65
2023/07/05 00:28:28;;;;;;;6.55;4.22;;;17.70;99.90;;;;;;4989499;28;20030;-65
2023/07/05 00:30:53;;;;;;;9.60;4.25;;;17.80;99.90;;;;;;4992147;28;20122;-65
2023/07/05 00:33:19;;;;;;;5.20;4.50;;;17.80;99.90;;;;;;4991937;28;20721;-65
2023/07/05 00:35:50;;;;;;;6.63;3.92;;;17.80;99.90;;;;;;4993043;28;20046;-65
2023/07/05 00:38:16;;;;;;;10.75;4.30;;;17.70;99.90;;;;;;4994288;28;20041;-65
2023/07/05 00:40:42;;;;;;;5.13;3.80;;;17.70;99.90;;;;;;4986154;28;20049;-70
2023/07/05 00:43:09;;;;;;;12.70;4.65;;;17.70;99.90;;;;;;4988922;28;20041;-71
2023/07/05 00:45:54;;;;;;;9.77;4.35;;;17.60;99.90;;;;;;4986752;28;20302;-69
2023/07/05 00:48:38;;;;;;;7.97;4.18;;;17.60;99.90;;;;;;4988783;28;20042;-70
2023/07/05 00:51:14;;;;;;;9.07;4.43;;;17.60;99.90;;;;;;4986477;28;20047;-70
2023/07/05 00:53:40;;;;;;;4.47;3.60;;;17.70;99.90;;;;;;4974155;28;20042;-69
2023/07/05 00:56:28;;;;;;;6.00;4.15;;;17.70;99.90;;;;;;4986096;28;20069;-69
2023/07/05 00:58:56;;;;;;;5.72;3.95;;;17.70;99.90;;;;;;4993454;28;20036;-69
2023/07/05 01:01:21;;;;;;;10.75;3.92;;;17.70;99.90;;;;;;4986703;28;20054;-69
2023/07/05 01:03:53;;;;;;;10.35;3.42;;;17.60;99.90;;;;;;4989641;28;20345;-69
2023/07/05 01:06:22;;;;;;;8.85;3.83;;;17.50;99.90;;;;;;4986384;28;20482;-69
2023/07/05 01:08:49;;;;;;;6.90;3.70;;;17.50;99.90;;;;;;4991647;28;20030;-69
2023/07/05 01:11:35;;;;;;;6.18;3.65;;;17.40;99.90;;;;;;4988182;28;20061;-69
2023/07/05 01:14:11;;;;;;;5.82;3.25;;;17.40;99.90;;;;;;4985992;28;20128;-69
2023/07/05 01:17:03;;;;;;;8.75;4.45;;;17.40;99.90;;;;;;4989773;28;20109;-69
2023/07/05 01:19:47;;;;;;;6.13;3.80;;;17.40;99.90;;;;;;4986605;28;20819;-64
2023/07/05 01:22:36;;;;;;;5.82;3.92;;;17.30;99.90;;;;;;4990022;28;20038;-64
2023/07/05 01:25:35;;;;;;;10.02;4.32;;;17.30;99.90;;;;;;4989799;28;20042;-64
2023/07/05 01:28:11;;;;;;;7.53;4.28;;;17.30;99.90;;;;;;4992448;28;20530;-64
2023/07/05 01:30:51;;;;;;;4.57;3.70;;;17.30;99.90;;;;;;4986332;28;20664;-65
2023/07/05 01:33:23;;;;;;;6.93;3.97;;;17.30;99.90;;;;;;4985539;28;20083;-64
2023/07/05 01:35:52;;;;;;;6.22;3.92;;;17.30;99.90;;;;;;4996512;28;20397;-64
2023/07/05 01:38:17;;;;;;;9.43;3.95;;;17.20;99.90;;;;;;4987968;28;20068;-64
2023/07/05 01:40:51;;;;;;;11.70;3.97;;;17.30;99.90;;;;;;4984969;28;20054;-64
2023/07/05 01:43:17;;;;;;;7.55;3.83;;;17.20;99.90;;;;;;4985815;28;20069;-64
2023/07/05 01:45:43;;;;;;;7.72;3.80;;;17.20;99.90;;;;;;4994987;28;20573;-64
2023/07/05 01:48:43;;;;;;;5.43;3.83;;;17.10;99.90;;;;;;4986132;28;20701;-64
2023/07/05 01:51:16;;;;;;;5.70;3.47;;;17.20;99.90;;;;;;4990647;28;20057;-64
2023/07/05 01:54:04;;;;;;;8.57;4.32;;;17.10;99.90;;;;;;4990266;28;20038;-64
2023/07/05 01:56:36;;;;;;;5.40;3.60;;;17.10;99.90;;;;;;4983705;28;20031;-70
2023/07/05 01:59:04;;;;;;;4.72;3.90;;;17.10;99.90;;;;;;4990265;28;20039;-69
2023/07/05 02:01:32;;;;;;;4.47;3.28;;;17.10;99.90;;;;;;4975794;28;20046;-69
2023/07/05 02:03:59;;;;;;;6.72;4.18;;;17.20;99.90;;;;;;4993118;28;20041;-69
2023/07/05 02:06:26;;;;;;;7.15;3.45;;;17.20;99.90;;;;;;4978066;28;20868;-69
2023/07/05 02:08:52;;;;;;;7.38;3.17;;;17.20;99.90;;;;;;4996256;28;20033;-69
2023/07/05 02:11:18;;;;;;;7.57;3.17;;;17.10;99.90;;;;;;4993574;28;20042;-69
2023/07/05 02:13:44;;;;;;;6.60;3.28;;;17.00;99.90;;;;;;4992639;28;20053;-65
2023/07/05 02:16:10;;;;;;;7.43;3.38;;;16.90;99.90;;;;;;4995500;28;20097;-65
2023/07/05 02:18:35;;;;;;;6.22;3.42;;;16.90;99.90;;;;;;4991988;28;20045;-65
2023/07/05 02:21:01;;;;;;;5.35;3.53;;;16.90;99.90;;;;;;4990130;28;20355;-65
2023/07/05 02:23:26;;;;;;;7.82;4.00;;;16.80;99.90;;;;;;4994266;28;20035;-65
2023/07/05 02:25:53;;;;;;;5.82;3.47;;;16.80;99.90;;;;;;4993328;28;20583;-65
2023/07/05 02:28:19;;;;;;;4.60;3.50;;;16.80;99.90;;;;;;4990173;28;21166;-65
2023/07/05 02:30:44;;;;;;;6.60;3.58;;;16.80;99.90;;;;;;4985334;28;20049;-69
2023/07/05 02:33:10;;;;;;;6.43;3.58;;;16.80;99.90;;;;;;4988497;28;20041;-69
2023/07/05 02:35:37;;;;;;;7.28;4.20;;;16.80;99.90;;;;;;4992260;28;20060;-69
2023/07/05 02:38:04;;;;;;;5.05;4.28;;;16.80;99.90;;;;;;4995422;28;20025;-70
2023/07/05 02:40:29;;;;;;;5.78;3.90;;;16.90;99.90;;;;;;4994532;28;20441;-69
2023/07/05 02:42:56;;;;;;;5.43;3.80;;;17.00;99.90;;;;;;4990859;28;20041;-69
2023/07/05 02:45:21;;;;;;;4.45;2.83;;;17.00;99.90;;;;;;4975414;28;20422;-70
2023/07/05 02:47:47;;;;;;;7.78;3.88;;;17.00;99.90;;;;;;4974760;28;20029;-69
2023/07/05 02:50:17;;;;;;;6.97;3.65;;;17.00;99.90;;;;;;4992695;28;20140;-65
2023/07/05 02:52:43;;;;;;;5.70;3.53;;;16.90;99.90;;;;;;4987207;28;20042;-65
2023/07/05 02:55:09;;;;;;;8.02;3.97;;;16.90;99.90;;;;;;4989187;28;20136;-65
2023/07/05 02:57:34;;;;;;;8.07;3.60;;;16.80;99.90;;;;;;4992644;28;20053;-65
2023/07/05 03:00:00;;;;;;;7.90;3.17;;;16.80;99.90;;;;;;4995965;28;20058;-65
2023/07/05 03:02:25;;;;;;;7.40;3.35;;;16.70;99.90;;;;;;4987958;28;20073;-65
2023/07/05 03:04:53;;;;;;;7.45;3.92;;;16.70;99.90;;;;;;4994462;28;20493;-65
2023/07/05 03:07:19;;;;;;;10.13;3.40;;;16.70;99.90;;;;;;4990578;28;20143;-65
2023/07/05 03:09:48;;;;;;;9.98;3.60;;;16.70;99.90;;;;;;4988916;28;20637;-65
2023/07/05 03:12:14;;;;;;;5.32;3.17;;;16.80;99.90;;;;;;4990650;28;20088;-65
2023/07/05 03:14:40;;;;;;;7.63;4.07;;;16.80;99.90;;;;;;4993437;28;20069;-65
2023/07/05 03:17:06;;;;;;;7.60;4.05;;;16.70;99.90;;;;;;4988910;28;20478;-65
2023/07/05 03:19:31;;;;;;;5.68;3.38;;;16.70;99.90;;;;;;4988375;28;20073;-65
2023/07/05 03:21:57;;;;;;;3.78;3.00;;;16.70;99.90;;;;;;4994789;28;20533;-64
2023/07/05 03:24:23;;;;;;;6.82;3.65;;;16.70;99.90;;;;;;4985928;28;20036;-65
2023/07/05 03:26:52;;;;;;;5.80;3.38;;;16.80;99.90;;;;;;4990735;28;20073;-65
2023/07/05 03:29:17;;;;;;;7.90;2.83;;;16.80;99.90;;;;;;4994313;28;21289;-64
2023/07/05 03:31:43;;;;;;;6.85;2.90;;;16.80;99.90;;;;;;4988412;28;20046;-65
2023/07/05 03:34:09;;;;;;;5.47;3.30;;;16.90;99.90;;;;;;4973940;28;20708;-65
2023/07/05 03:36:34;;;;;;;8.45;3.47;;;16.80;99.90;;;;;;4993274;28;20636;-65
2023/07/05 03:39:00;;;;;;;5.10;3.80;;;16.80;99.90;;;;;;4987910;28;20042;-65
2023/07/05 03:41:26;;;;;;;10.80;3.90;;;16.80;99.90;;;;;;4991549;28;20065;-65
2023/07/05 03:43:58;;;;;;;7.95;3.88;;;16.90;99.90;;;;;;4977658;28;20045;-70
2023/07/05 03:46:24;;;;;;;6.07;3.58;;;17.00;99.90;;;;;;4997288;28;20053;-70
2023/07/05 03:48:50;;;;;;;4.82;3.67;;;17.00;99.90;;;;;;4993310;28;20050;-70
2023/07/05 03:51:18;;;;;;;5.15;3.30;;;17.10;99.90;;;;;;4995151;28;20124;-69
2023/07/05 03:53:51;;;;;;;6.28;3.20;;;17.20;99.90;;;;;;4990231;28;20145;-70
2023/07/05 03:56:18;;;;;;;10.85;4.07;;;17.20;99.90;;;;;;4990666;28;20026;-69
2023/07/05 03:58:44;;;;;;;4.55;2.92;;;17.20;99.90;;;;;;4992868;28;20514;-70
2023/07/05 04:01:15;;;;;;;5.93;3.30;;;17.20;99.90;;;;;;4988706;28;20046;-70
2023/07/05 04:03:46;;;;;;;6.97;2.97;;;17.20;99.90;;;;;;4990953;28;20083;-65
2023/07/05 04:06:12;;;;;;;7.68;3.13;;;17.30;99.90;;;;;;4973192;28;20610;-65
2023/07/05 04:08:39;;;;;;;4.40;3.47;;;17.30;99.90;;;;;;4990916;28;20029;-65
2023/07/05 04:11:05;;;;;;;8.07;3.25;;;17.50;99.90;;;;;;4988953;28;20036;-65
2023/07/05 04:13:31;;;;;;;4.90;3.53;;;17.50;99.90;;;;;;4993573;28;20046;-65
2023/07/05 04:15:58;;;;;;;7.72;3.78;;;17.60;99.90;;;;;;4989832;28;20117;-65
2023/07/05 04:18:24;;;;;;;5.78;3.85;;;17.70;99.90;;;;;;4991336;28;20514;-65
2023/07/05 04:20:49;;;;;;;7.43;4.50;;;17.70;99.90;;;;;;4992806;28;20050;-70
2023/07/05 04:23:15;;;;;;;6.65;4.60;;;17.80;99.90;;;;;;4992644;28;20045;-70
2023/07/05 04:25:40;;;;;;;7.20;3.90;;;17.90;99.90;;;;;;4988483;28;20491;-70
2023/07/05 04:28:07;;;;;;;6.35;4.03;;;18.00;99.90;;;;;;4990054;28;20038;-69
2023/07/05 04:30:32;;;;;;;10.88;4.35;;;18.10;99.90;;;;;;4991867;28;20104;-69
2023/07/05 04:32:58;;;;;;;5.00;3.92;;;18.20;99.90;;;;;;4987537;28;20065;-70
2023/07/05 04:35:23;;;;;;;6.75;4.30;;;18.40;99.90;;;;;;4988060;28;20054;-69
2023/07/05 04:37:49;;;;;;;9.40;4.82;;;18.50;99.90;;;;;;4994397;28;20043;-69
2023/07/05 04:40:15;;;;;;;5.28;4.50;;;18.60;99.90;;;;;;4990570;28;20153;-65
2023/07/05 04:42:40;;;;;;;16.98;4.72;;;18.70;99.90;;;;;;4989830;28;20506;-69
2023/07/05 04:45:06;;;;;;;8.50;5.10;;;18.80;99.90;;;;;;4988174;28;20121;-69
2023/07/05 04:47:32;;;;;;;6.05;5.03;;;18.90;99.90;;;;;;4991328;28;20488;-69
2023/07/05 04:49:57;;;;;;;6.82;4.55;;;19.00;99.90;;;;;;4989317;28;20034;-69
2023/07/05 04:52:23;;;;;;;6.78;5.20;;;19.20;99.90;;;;;;4989900;28;20038;-70
2023/07/05 04:54:48;;;;;;;8.65;5.53;;;19.30;99.90;;;;;;4990983;28;20546;-69
2023/07/05 04:57:14;;;;;;;9.60;5.45;;;19.30;99.90;;;;;;4991036;28;20038;-66
2023/07/05 04:59:43;;;;;;;7.10;4.45;;;19.40;99.90;;;;;;4985767;28;20111;-65
2023/07/05 05:02:11;;;;;;;7.35;5.55;;;19.50;99.90;;;;;;4992817;28;20116;-65
2023/07/05 05:04:37;;;;;;;5.82;5.18;;;19.70;99.90;;;;;;4991728;28;20036;-65
2023/07/05 05:07:05;;;;;;;5.80;4.47;;;19.80;99.90;;;;;;4991642;28;20488;-65
2023/07/05 05:09:31;;;;;;;7.85;5.10;;;19.90;99.90;;;;;;4988923;28;20436;-65
2023/07/05 05:11:56;;;;;;;8.43;5.45;;;19.90;99.90;;;;;;4988197;28;20436;-65
2023/07/05 05:14:22;;;;;;;6.50;5.25;;;20.10;99.90;;;;;;4987684;28;20042;-65
2023/07/05 05:16:47;;;;;;;6.90;5.32;;;20.20;99.90;;;;;;4992851;28;20026;-66
2023/07/05 05:19:13;;;;;;;8.55;5.40;;;20.30;99.90;;;;;;4975787;28;20073;-65
2023/07/05 05:21:39;;;;;;;8.82;5.15;;;20.40;99.90;;;;;;4987296;28;20033;-65
2023/07/05 05:24:04;;;;;;;6.53;5.72;;;20.50;99.90;;;;;;4990620;28;20042;-66
2023/07/05 05:26:30;;;;;;;8.95;5.38;;;20.50;99.90;;;;;;4988277;28;20433;-66
2023/07/05 05:28:56;;;;;;;7.63;5.68;;;20.70;99.90;;;;;;4989941;28;20033;-65
2023/07/05 05:31:21;;;;;;;6.32;5.38;;;20.70;99.90;;;;;;4992078;28;20486;-65
2023/07/05 05:33:47;;;;;;;6.07;5.18;;;20.70;99.90;;;;;;4990912;28;20045;-65
2023/07/05 05:36:13;;;;;;;8.50;6.00;;;20.80;99.90;;;;;;4988915;28;20126;-69
2023/07/05 05:38:38;;;;;;;7.10;5.45;;;20.90;99.90;;;;;;4989628;28;20121;-69
2023/07/05 05:41:10;;;;;;;6.70;5.63;;;21.00;99.90;;;;;;4991858;28;20140;-69
2023/07/05 05:43:40;;;;;;;5.40;4.90;;;21.10;99.90;;;;;;4993971;28;20766;-69
2023/07/05 05:46:07;;;;;;;7.25;5.65;;;21.10;99.90;;;;;;4990334;28;20088;-70
2023/07/05 05:48:33;;;;;;;6.53;5.35;;;21.10;99.90;;;;;;4989368;28;20069;-69
2023/07/05 05:50:59;;;;;;;8.32;5.97;;;21.20;99.90;;;;;;4991925;28;20034;-69
2023/07/05 05:53:24;;;;;;;9.40;6.18;;;21.20;99.90;;;;;;4990913;28;20030;-69
2023/07/05 05:55:50;;;;;;;7.05;6.30;;;21.20;99.90;;;;;;4988248;28;20046;-70
2023/07/05 05:58:15;;;;;;;8.32;5.82;;;21.30;99.90;;;;;;4987679;28;20030;-69
2023/07/05 06:00:41;;;;;;;8.75;6.22;;;21.40;99.90;;;;;;4988811;28;20594;-69
2023/07/05 06:03:06;;;;;;;11.00;6.22;;;21.40;99.90;;;;;;4991503;28;20498;-69
2023/07/05 06:05:33;;;;;;;8.27;6.38;;;21.40;99.90;;;;;;4990787;28;20051;-69
2023/07/05 06:07:59;;;;;;;10.57;6.70;;;21.50;99.90;;;;;;4990598;28;20026;-69
2023/07/05 06:10:25;;;;;;;20.35;6.50;;;21.50;99.90;;;;;;4988789;28;20046;-69
2023/07/05 06:12:50;;;;;;;19.80;6.25;;;21.60;99.90;;;;;;4988776;28;20076;-66
2023/07/05 06:15:16;;;;;;;8.05;5.85;;;21.60;99.90;;;;;;4992733;28;20509;-66
2023/07/05 06:17:42;;;;;;;7.60;6.07;;;21.70;99.90;;;;;;4992146;28;20672;-66
2023/07/05 06:20:10;;;;;;;6.47;5.88;;;21.80;99.90;;;;;;4989475;28;20052;-66
2023/07/05 06:22:36;;;;;;;9.98;6.63;;;21.80;99.90;;;;;;4989501;28;20034;-66
2023/07/05 06:25:03;;;;;;;7.50;6.70;;;21.90;99.90;;;;;;4994608;28;20450;-66
2023/07/05 06:27:28;;;;;;;12.55;6.75;;;21.90;99.90;;;;;;4988618;28;20034;-66
2023/07/05 06:29:54;;;;;;;13.95;6.53;;;22.00;99.90;;;;;;4983726;28;20061;-66
2023/07/05 06:32:20;;;;;;;7.97;6.47;;;22.00;99.90;;;;;;4969747;28;20137;-68
2023/07/05 06:34:45;;;;;;;8.75;6.80;;;22.00;99.90;;;;;;4992767;28;20047;-69
2023/07/05 06:37:11;;;;;;;8.27;6.97;;;22.00;99.90;;;;;;4986789;28;20046;-69
2023/07/05 06:39:37;;;;;;;7.97;6.75;;;22.10;99.90;;;;;;4993735;28;20410;-69
2023/07/05 06:42:03;;;;;;;7.45;6.53;;;22.10;99.90;;;;;;4983228;28;20058;-69
2023/07/05 06:44:29;;;;;;;7.65;6.75;;;22.10;99.90;;;;;;4986754;28;20068;-69
2023/07/05 06:46:55;;;;;;;13.00;8.10;;;22.30;99.90;;;;;;4996160;28;20041;-68
2023/07/05 06:49:21;;;;;;;11.27;7.65;;;22.40;99.90;;;;;;4995475;28;20141;-69
2023/07/05 06:51:46;;;;;;;8.30;6.70;;;22.40;99.90;;;;;;4995535;28;20065;-69
2023/07/05 06:54:12;;;;;;;8.35;7.28;;;22.50;99.90;;;;;;4995654;28;20129;-69
2023/07/05 06:56:37;;;;;;;8.65;7.03;;;22.60;99.90;;;;;;4992380;28;20493;-69
2023/07/05 06:59:04;;;;;;;9.05;7.28;;;22.60;99.90;;;;;;4990425;28;20042;-69
2023/07/05 07:01:29;;;;;;;9.23;7.45;;;22.60;99.90;;;;;;4970225;28;20122;-69
2023/07/05 07:03:55;;;;;;;17.40;7.32;;;22.60;99.90;;;;;;4996718;28;20530;-69
2023/07/05 07:06:21;;;;;;;12.95;7.40;;;22.70;99.90;;;;;;4992535;28;20042;-69
2023/07/05 07:08:48;;;;;;;9.18;6.20;;;22.60;99.90;;;;;;4995186;28;20062;-69
2023/07/05 07:11:14;;;;;;;8.57;7.18;;;22.50;99.90;;;;;;4976851;28;20061;-69
2023/07/05 07:13:40;;;;;;;9.30;6.43;;;22.60;99.90;;;;;;4996379;28;20107;-69
2023/07/05 07:16:12;;;;;;;9.52;6.38;;;22.60;99.90;;;;;;4996069;28;20065;-69
2023/07/05 07:18:38;;;;;;;;;;;22.80;99.90;;;;;;4994523;28;20028;-69
2023/07/05 07:21:11;;;;;;;9.15;7.00;;;23.00;99.90;;;;;;4988539;28;19925;-70
2023/07/05 07:23:37;;;;;;;9.38;6.90;;;23.00;99.90;;;;;;4978863;28;20041;-69
2023/07/05 07:26:09;;;;;;;7.90;6.72;;;23.00;99.90;;;;;;4993949;28;20500;-69
2023/07/05 07:28:35;;;;;;;10.30;7.32;;;23.20;99.90;;;;;;4991224;28;20137;-69
2023/07/05 07:31:19;;;;;;;9.32;6.78;;;23.30;99.90;;;;;;4992447;28;20037;-69
2023/07/05 07:33:46;;;;;;;10.55;7.28;;;23.50;99.90;;;;;;4992205;28;20046;-69
2023/07/05 07:36:17;;;;;;;10.18;6.55;;;23.60;99.90;;;;;;4986916;28;20035;-69
2023/07/05 07:38:43;;;;;;;12.77;6.45;;;23.70;99.90;;;;;;4997709;28;20085;-69
2023/07/05 07:41:22;;;;;;;18.25;7.32;;;23.80;99.90;;;;;;4962061;28;20050;-68
2023/07/05 07:43:53;;;;;;;8.35;6.00;;;24.10;99.90;;;;;;4972303;28;20129;-69
2023/07/05 07:46:22;;;;;;;7.60;6.30;;;24.20;99.90;;;;;;4987989;28;20177;-68
2023/07/05 07:48:49;;;;;;;8.23;5.90;;;24.40;99.90;;;;;;4988121;28;20038;-68
2023/07/05 07:51:16;;;;;;;8.23;6.47;;;24.40;99.90;;;;;;4976947;28;20051;-68
2023/07/05 07:53:42;;;;;;;8.15;6.15;;;24.40;99.90;;;;;;4986114;28;20199;-68
2023/07/05 07:56:15;;;;;;;8.30;6.07;;;24.40;99.90;;;;;;4984205;28;20042;-68
2023/07/05 07:58:42;;;;;;;9.35;5.85;;;24.50;99.90;;;;;;4992015;28;20134;-68
2023/07/05 08:01:12;;;;;;;8.95;6.47;;;24.60;99.90;;;;;;4982741;28;20072;-68
2023/07/05 08:03:38;;;;;;;13.32;6.07;;;24.50;99.90;;;;;;4988236;28;20048;-65
2023/07/05 08:06:03;;;;;;;7.38;5.70;;;24.40;99.90;;;;;;4990973;28;20045;-65
2023/07/05 08:08:29;;;;;;;5.97;5.07;;;24.60;99.90;;;;;;4973959;28;20601;-65
2023/07/05 08:10:54;;;;;;;8.13;5.25;;;24.80;99.90;;;;;;4989844;28;20058;-65
2023/07/05 08:13:20;;;;;;;8.13;5.60;;;24.90;99.90;;;;;;4988124;28;20038;-65
2023/07/05 08:15:46;;;;;;;11.18;5.82;;;25.00;99.90;;;;;;4984202;28;20232;-65
2023/07/05 08:18:11;;;;;;;6.85;5.32;;;25.10;99.90;;;;;;4982898;28;20073;-64
2023/07/05 08:20:37;;;;;;;15.07;5.70;;;25.10;99.90;;;;;;4992467;28;20112;-64
2023/07/05 08:23:02;;;;;;;6.03;5.43;;;25.10;99.90;;;;;;4991471;28;20562;-64
2023/07/05 08:25:28;;;;;;;9.02;5.45;;;25.10;99.90;;;;;;4983654;28;20675;-67
2023/07/05 08:27:54;;;;;;;10.05;5.10;;;25.10;99.90;;;;;;4981604;28;20445;-65
2023/07/05 08:30:19;;;;;;;7.60;5.50;;;25.20;99.90;;;;;;4980726;28;20038;-65
2023/07/05 08:32:45;;;;;;;6.60;5.40;;;25.30;99.90;;;;;;4970741;28;20060;-66
2023/07/05 08:35:10;;;;;;;10.27;5.32;;;25.30;99.90;;;;;;4995030;28;20060;-65
2023/07/05 08:37:36;;;;;;;9.00;5.68;;;25.40;99.90;;;;;;4994808;28;20035;-68
2023/07/05 08:40:05;;;;;;;9.18;5.13;;;25.50;99.90;;;;;;4990071;28;20050;-69
2023/07/05 08:42:42;;;;;;;10.77;5.45;;;25.60;99.90;;;;;;4984331;28;20546;-68
2023/07/05 08:45:18;;;;;;;7.22;5.18;;;25.70;99.90;;;;;;4995724;28;20048;-68
2023/07/05 08:47:53;;;;;;;6.15;4.88;;;25.70;99.90;;;;;;4971612;28;20057;-69
2023/07/05 08:50:42;;;;;;;7.05;4.72;;;25.70;99.90;;;;;;4991112;28;20137;-69
2023/07/05 08:53:14;;;;;;;9.32;5.50;;;25.60;99.90;;;;;;4989751;28;20034;-65
2023/07/05 08:55:52;;;;;;;5.85;5.20;;;25.80;99.90;;;;;;4976785;28;20033;-65
2023/07/05 08:58:25;;;;;;;6.57;5.15;;;25.80;99.90;;;;;;4989163;28;20034;-64
2023/07/05 09:01:06;;;;;;;5.15;4.60;;;25.90;99.90;;;;;;4988569;28;20691;-65
2023/07/05 09:03:32;;;;;;;8.38;5.10;;;25.90;99.90;;;;;;4992475;28;21210;-65
2023/07/05 09:06:16;;;;;;;10.07;5.82;;;26.00;99.90;;;;;;4993291;28;20042;-65
2023/07/05 09:09:02;;;;;;;7.57;5.30;;;26.00;99.90;;;;;;4989218;28;20034;-65
2023/07/05 09:11:37;;;;;;;8.57;5.55;;;26.10;99.90;;;;;;4991362;28;20069;-65
2023/07/05 09:14:28;;;;;;;10.32;5.25;;;26.20;99.90;;;;;;4988968;28;20046;-65
2023/07/05 09:17:22;;;;;;;6.53;4.60;;;26.30;99.90;;;;;;4986501;28;20722;-65
2023/07/05 09:19:53;;;;;;;8.13;4.93;;;26.40;99.90;;;;;;4971278;28;20168;-66
2023/07/05 09:22:23;;;;;;;7.20;4.65;;;26.40;99.90;;;;;;4989301;28;20807;-65
2023/07/05 09:24:49;;;;;;;6.28;5.60;;;26.40;99.90;;;;;;4988355;28;20053;-65
2023/07/05 09:27:20;;;;;;;7.43;4.90;;;26.40;99.90;;;;;;4969548;28;20185;-65
2023/07/05 09:29:50;;;;;;;8.07;4.97;;;26.40;99.90;;;;;;4954326;28;20924;-65
2023/07/05 09:32:26;;;;;;;5.93;4.88;;;26.30;99.90;;;;;;4968374;28;20125;-65
2023/07/05 09:34:58;;;;;;;6.35;4.97;;;26.40;99.90;;;;;;4964054;28;20242;-71
2023/07/05 09:37:32;;;;;;;12.73;5.43;;;26.50;99.90;;;;;;4944904;28;20045;-66
2023/07/05 09:40:20;;;;;;;6.45;4.60;;;26.50;99.90;;;;;;4956910;28;20107;-67
2023/07/05 09:43:07;;;;;;;7.18;4.85;;;26.40;99.90;;;;;;4971483;28;20073;-68
2023/07/05 09:45:33;;;;;;;8.45;4.95;;;26.40;99.90;;;;;;4953882;28;20037;-66
2023/07/05 09:48:05;;;;;;;7.82;5.05;;;26.50;99.90;;;;;;4964263;28;20540;-68
2023/07/05 09:50:31;;;;;;;6.95;4.93;;;26.70;99.90;;;;;;4949566;28;20365;-66
2023/07/05 09:53:01;;;;;;;6.10;4.50;;;26.80;99.90;;;;;;4964425;28;20827;-66
2023/07/05 09:55:29;;;;;;;6.30;4.22;;;26.80;99.90;;;;;;4963501;28;20064;-74
2023/07/05 09:57:55;;;;;;;6.13;4.72;;;26.80;99.90;;;;;;4967559;28;20061;-73
2023/07/05 10:00:35;;;;;;;6.63;4.90;;;26.80;99.90;;;;;;4963364;28;20058;-72
2023/07/05 10:03:14;;;;;;;5.63;4.63;;;26.70;99.90;;;;;;4948964;28;20047;-73
2023/07/05 10:05:50;;;;;;;6.82;4.32;;;26.70;99.90;;;;;;4959685;28;20092;-71
2023/07/05 10:08:16;;;;;;;5.65;4.45;;;26.70;99.90;;;;;;4954849;28;20672;-73
2023/07/05 10:10:43;;;;;;;5.75;4.72;;;26.60;99.90;;;;;;4967421;28;20049;-71
2023/07/05 10:13:20;;;;;;;5.95;4.57;;;26.60;99.90;;;;;;4966460;28;20034;-65
2023/07/05 10:15:50;;;;;;;11.00;4.15;;;26.50;99.90;;;;;;4964470;28;20081;-65
2023/07/05 10:18:31;;;;;;;7.25;4.85;;;26.50;99.90;;;;;;4951749;28;20035;-65
2023/07/05 10:21:16;;;;;;;6.50;4.18;;;26.40;99.90;;;;;;4963836;28;20053;-65
2023/07/05 10:23:43;;;;;;;5.03;4.20;;;26.30;99.90;;;;;;4966384;28;20120;-65
2023/07/05 10:26:11;;;;;;;5.03;4.30;;;26.30;99.90;;;;;;4968579;28;20157;-65
2023/07/05 10:28:41;;;;;;;7.25;4.93;;;26.40;99.90;;;;;;4966989;28;20065;-65
2023/07/05 10:31:26;;;;;;;5.57;4.60;;;26.50;99.90;;;;;;4965491;28;20530;-65
2023/07/05 10:34:05;;;;;;;6.43;4.70;;;26.70;99.90;;;;;;4969393;28;20038;-65
2023/07/05 10:36:31;;;;;;;5.22;4.63;;;26.80;99.90;;;;;;4959554;28;20034;-65
2023/07/05 10:38:57;;;;;;;7.07;4.78;;;26.90;99.90;;;;;;4966163;28;20170;-65
2023/07/05 10:41:32;;;;;;;4.82;4.18;;;27.00;99.90;;;;;;4961991;28;20132;-65
2023/07/05 10:44:12;;;;;;;8.30;4.78;;;27.10;99.90;;;;;;4963869;28;20157;-65
2023/07/05 10:46:39;;;;;;;5.50;4.30;;;27.20;99.90;;;;;;4964767;28;20045;-65
2023/07/05 10:49:10;;;;;;;7.18;4.38;;;27.20;99.90;;;;;;4966155;28;20149;-65
2023/07/05 10:51:40;;;;;;;5.05;4.55;;;27.20;99.90;;;;;;4962524;28;20424;-65
2023/07/05 10:54:32;;;;;;;6.05;4.25;;;27.20;99.90;;;;;;4948028;28;20405;-66
2023/07/05 10:57:03;;;;;;;8.73;4.13;;;27.10;99.90;;;;;;4967007;28;20113;-65
2023/07/05 10:59:43;;;;;;;28.08;5.95;;;27.00;99.90;;;;;;4948572;28;20149;-64
2023/07/05 11:02:37;;;;;;;5.68;4.32;;;26.90;99.90;;;;;;4970362;28;20045;-65
2023/07/05 11:05:16;;;;;;;5.95;4.18;;;26.90;99.90;;;;;;4968397;28;20033;-65
2023/07/05 11:07:44;;;;;;;6.95;4.72;;;26.90;99.90;;;;;;4968296;28;20160;-65
2023/07/05 11:10:16;;;;;;;5.38;4.22;;;26.80;99.90;;;;;;4967616;28;20128;-65
2023/07/05 11:12:42;;;;;;;6.82;4.30;;;26.70;99.90;;;;;;4966876;28;20517;-65
2023/07/05 11:15:21;;;;;;;6.75;4.53;;;26.70;99.90;;;;;;4966718;28;20053;-64
2023/07/05 11:17:47;;;;;;;6.32;4.75;;;26.80;99.90;;;;;;4966711;28;20196;-66
2023/07/05 11:20:36;;;;;;;8.32;4.30;;;26.90;99.90;;;;;;4965876;28;20292;-65
2023/07/05 11:23:02;;;;;;;6.45;4.30;;;27.00;99.90;;;;;;4971251;28;20045;-65
2023/07/05 11:25:52;;;;;;;6.32;4.15;;;27.10;99.90;;;;;;4968108;28;20034;-69
2023/07/05 11:28:33;;;;;;;6.97;4.45;;;27.30;99.90;;;;;;4960271;28;20053;-70
2023/07/05 11:31:00;;;;;;;4.90;3.80;;;27.30;99.90;;;;;;4952584;28;20045;-70
2023/07/05 11:33:26;;;;;;;6.82;4.15;;;27.30;99.90;;;;;;4948995;28;20537;-70
2023/07/05 11:35:58;;;;;;;6.47;3.92;;;27.30;99.90;;;;;;4972890;28;20516;-70
2023/07/05 11:38:40;;;;;;;4.20;3.80;;;27.40;99.90;;;;;;4968583;28;20042;-70
2023/07/05 11:41:27;;;;;;;4.15;3.65;;;27.50;99.90;;;;;;4969020;28;20058;-70
2023/07/05 11:44:18;;;;;;;5.10;3.75;;;27.60;99.90;;;;;;4963370;28;20128;-65
2023/07/05 11:46:45;;;;;;;5.40;4.10;;;27.60;99.90;;;;;;4937809;28;20115;-66
2023/07/05 11:49:27;;;;;;;6.15;4.10;;;27.70;99.90;;;;;;4961406;28;20153;-66
2023/07/05 11:52:17;;;;;;;6.75;4.30;;;27.90;99.90;;;;;;4952628;28;20264;-66
2023/07/05 11:54:58;;;;;;;4.68;3.63;;;27.80;99.90;;;;;;4967874;28;20126;-66
2023/07/05 11:57:25;;;;;;;5.90;4.07;;;27.90;99.90;;;;;;4952359;28;20129;-66
2023/07/05 12:00:17;;;;;;;4.82;4.30;;;27.80;99.90;;;;;;4957735;28;20045;-66
2023/07/05 12:02:51;;;;;;;5.50;3.72;;;27.90;99.90;;;;;;4966573;28;20145;-69
2023/07/05 12:05:24;;;;;;;4.18;3.78;;;27.90;99.90;;;;;;4957284;28;20345;-69
2023/07/05 12:08:12;;;;;;;6.28;3.78;;;28.00;99.90;;;;;;4950722;28;20060;-69
2023/07/05 12:10:44;;;;;;;7.75;3.95;;;28.00;99.90;;;;;;4940345;28;20038;-68
2023/07/05 12:13:19;;;;;;;5.45;3.95;;;27.90;99.90;;;;;;4964609;28;20157;-69
2023/07/05 12:15:45;;;;;;;7.20;4.07;;;27.80;99.90;;;;;;4962146;28;20477;-66
2023/07/05 12:18:14;;;;;;;6.63;3.85;;;27.70;99.90;;;;;;4961527;28;20577;-66
2023/07/05 12:20:43;;;;;;;5.32;3.38;;;27.70;99.90;;;;;;4961632;28;20108;-65
2023/07/05 12:23:16;;;;;;;5.72;4.40;;;27.90;99.90;;;;;;4956217;28;20090;-64
2023/07/05 12:25:50;;;;;;;4.57;3.60;;;28.00;99.90;;;;;;4964877;28;20153;-64
2023/07/05 12:28:22;;;;;;;5.50;3.40;;;28.00;99.90;;;;;;4965091;28;20120;-64
2023/07/05 12:30:48;;;;;;;4.60;3.45;;;28.00;99.90;;;;;;4960767;28;20096;-64
2023/07/05 12:33:29;;;;;;;3.78;3.28;;;28.10;99.90;;;;;;4965446;28;20042;-65
2023/07/05 12:36:16;;;;;;;6.55;3.67;;;27.90;99.90;;;;;;4966376;28;20195;-64
2023/07/05 12:39:04;;;;;;;5.25;3.22;;;27.90;99.90;;;;;;4957009;28;20842;-65
2023/07/05 12:41:29;;;;;;;4.05;2.88;;;27.80;99.90;;;;;;4977754;28;20065;-65
2023/07/05 12:44:05;;;;;;;4.00;3.60;;;27.70;99.90;;;;;;4980740;28;20035;-65
2023/07/05 12:46:32;;;;;;;4.72;3.70;;;27.70;99.90;;;;;;4984928;28;20042;-65
2023/07/05 12:49:19;;;;;;;4.85;3.50;;;27.80;99.90;;;;;;4978170;28;20137;-65
2023/07/05 12:51:50;;;;;;;4.60;3.55;;;27.90;99.90;;;;;;4983996;28;20077;-65
2023/07/05 12:54:16;;;;;;;3.88;3.03;;;27.80;99.90;;;;;;4981448;28;20146;-65
2023/07/05 12:56:45;;;;;;;5.22;3.75;;;27.90;99.90;;;;;;4989846;28;20054;-65
2023/07/05 12:59:32;;;;;;;4.65;3.00;;;27.80;99.90;;;;;;4982958;28;20038;-66
2023/07/05 13:02:03;;;;;;;6.20;3.70;;;27.80;99.90;;;;;;4985644;28;20051;-66